createdAt,value
2024-05-09T00:02:18.432Z,11.28
2024-05-09T00:07:21.912Z,11.17
2024-05-09T00:12:25.301Z,10.99
2024-05-09T00:17:29.112Z,11.00
2024-05-09T00:22:33.255Z,10.95
2024-05-09T00:27:37.410Z,10.85
2024-05-09T00:32:40.960Z,10.84
2024-05-09T00:37:44.406Z,10.95
2024-05-09T00:42:47.995Z,10.95
2024-05-09T00:47:51.820Z,11.00
2024-05-09T00:52:55.725Z,11.15
2024-05-09T00:57:59.335Z,11.15
2024-05-09T01:03:03.302Z,11.09
2024-05-09T01:08:07.585Z,11.33
2024-05-09T01:13:11.252Z,11.50
2024-05-09T01:18:15.095Z,11.68
2024-05-09T01:23:18.572Z,11.62
2024-05-09T01:28:22.176Z,11.30
2024-05-09T01:33:25.925Z,11.02
2024-05-09T01:38:29.739Z,10.53
2024-05-09T01:43:33.190Z,10.32
2024-05-09T01:48:36.783Z,10.22
2024-05-09T01:53:40.136Z,10.10
2024-05-09T01:58:43.523Z,10.10
2024-05-09T02:03:49.976Z,10.04
2024-05-09T02:08:53.555Z,9.89
2024-05-09T02:13:56.937Z,9.84
2024-05-09T02:19:00.314Z,9.78
2024-05-09T02:24:04.098Z,9.60
2024-05-09T02:29:07.990Z,9.49
2024-05-09T02:34:11.569Z,9.43
2024-05-09T02:39:15.202Z,9.37
2024-05-09T02:44:18.588Z,9.30
2024-05-09T02:49:22.158Z,9.19
2024-05-09T02:54:25.546Z,9.10
2024-05-09T02:59:28.925Z,9.10
2024-05-09T03:04:32.537Z,8.97
2024-05-09T03:09:35.889Z,8.90
2024-05-09T03:14:39.189Z,8.92
2024-05-09T03:19:42.460Z,8.89
2024-05-09T03:24:45.794Z,8.76
2024-05-09T03:29:49.055Z,8.80
2024-05-09T03:34:52.560Z,8.70
2024-05-09T03:39:55.855Z,8.69
2024-05-09T03:44:59.098Z,8.65
2024-05-09T03:50:03.332Z,8.69
2024-05-09T03:55:09.177Z,8.76
2024-05-09T04:00:18.297Z,8.84
2024-05-09T04:05:31.226Z,8.87
2024-05-09T04:10:35.523Z,8.93
2024-05-09T04:15:39.501Z,9.04
2024-05-09T04:20:43.125Z,9.06
2024-05-09T04:25:47.181Z,9.10
2024-05-09T04:30:51.113Z,9.16
2024-05-09T04:35:54.712Z,9.19
2024-05-09T04:40:58.207Z,9.25
2024-05-09T04:46:01.679Z,9.28
2024-05-09T04:51:07.579Z,9.36
2024-05-09T04:56:10.993Z,9.43
2024-05-09T05:01:16.438Z,9.57
2024-05-09T05:06:19.744Z,9.69
2024-05-09T05:11:23.297Z,9.85
2024-05-09T05:16:26.798Z,9.98
2024-05-09T05:21:30.265Z,10.08
2024-05-09T05:26:34.933Z,10.15
2024-05-09T05:31:38.682Z,10.14
2024-05-09T05:36:42.058Z,10.13
2024-05-09T05:41:45.285Z,10.07
2024-05-09T05:46:49.268Z,10.08
2024-05-09T05:58:19.901Z,10.21
2024-05-09T06:03:24.311Z,10.37
2024-05-09T06:08:30.277Z,10.49
2024-05-09T06:13:34.308Z,10.57
2024-05-09T06:18:38.218Z,10.64
2024-05-09T06:23:49.036Z,10.75
2024-05-09T06:28:52.507Z,10.75
2024-05-09T06:33:56.254Z,10.78
2024-05-09T06:38:59.731Z,10.74
2024-05-09T06:44:03.247Z,10.62
2024-05-09T06:49:09.326Z,10.56
2024-05-09T06:54:12.895Z,10.51
2024-05-09T06:59:16.574Z,10.50
2024-05-09T07:04:20.200Z,10.42
2024-05-09T07:09:23.798Z,10.27
2024-05-09T07:14:27.490Z,10.10
2024-05-09T07:19:31.104Z,10.09
2024-05-09T07:24:36.230Z,10.18
2024-05-09T07:29:39.687Z,10.30
2024-05-09T07:34:43.129Z,10.44
2024-05-09T07:39:46.761Z,10.46
2024-05-09T07:44:50.345Z,10.33
2024-05-09T07:51:32.896Z,10.26
2024-05-09T07:55:17.661Z,10.39
2024-05-09T08:00:29.503Z,10.54
2024-05-09T08:05:35.284Z,10.69
2024-05-09T08:10:38.858Z,10.43
2024-05-09T08:15:42.904Z,10.12
2024-05-09T08:20:52.904Z,10.06
2024-05-09T08:25:56.239Z,10.12
2024-05-09T08:31:01.645Z,10.69
2024-05-09T08:36:05.983Z,11.48
2024-05-09T08:41:09.449Z,12.16
2024-05-09T08:46:13.830Z,12.85
2024-05-09T08:51:17.642Z,13.68
2024-05-09T08:56:23.373Z,13.99
2024-05-09T09:01:31.485Z,14.46
2024-05-09T09:06:36.116Z,14.79
2024-05-09T09:11:39.720Z,15.23
2024-05-09T09:16:43.645Z,15.25
2024-05-09T09:21:47.136Z,15.02
2024-05-09T09:26:54.562Z,14.79
2024-05-09T09:32:07.293Z,14.48
2024-05-09T09:37:14.611Z,14.31
2024-05-09T09:42:25.482Z,14.23
2024-05-09T09:47:40.522Z,14.15
2024-05-09T09:52:46.691Z,13.92
2024-05-09T09:57:50.654Z,14.00
2024-05-09T10:02:54.348Z,14.05
2024-05-09T10:07:59.095Z,14.01
2024-05-09T10:13:06.510Z,14.60
2024-05-09T10:18:11.423Z,14.80
2024-05-09T10:23:31.507Z,15.02
2024-05-09T10:28:42.988Z,15.14
2024-05-09T10:33:53.793Z,14.80
2024-05-09T10:44:40.389Z,14.12
2024-05-09T10:49:44.882Z,13.77
2024-05-09T10:54:59.148Z,13.66
2024-05-09T11:00:18.972Z,13.73
2024-05-09T11:05:27.699Z,14.26
2024-05-09T11:10:34.221Z,14.56
2024-05-09T11:15:42.323Z,14.22
2024-05-09T11:20:49.812Z,14.03
2024-05-09T11:26:02.922Z,13.74
2024-05-09T11:31:11.153Z,13.27
2024-05-09T11:36:23.049Z,13.33
2024-05-09T11:41:33.111Z,13.19
2024-05-09T11:46:55.689Z,13.38
2024-05-09T11:52:29.059Z,13.46
2024-05-09T11:57:35.936Z,13.41
2024-05-09T12:02:48.829Z,13.14
2024-05-09T12:07:54.149Z,12.72
2024-05-09T12:13:00.812Z,12.41
2024-05-09T12:18:11.288Z,12.45
2024-05-09T12:23:17.079Z,12.24
2024-05-09T12:28:24.698Z,11.87
2024-05-09T12:33:33.419Z,11.52
2024-05-09T12:38:37.221Z,11.50
2024-05-09T12:43:45.916Z,11.71
2024-05-09T12:48:54.327Z,12.34
2024-05-09T12:54:01.336Z,13.51
2024-05-09T13:13:03.304Z,14.08
2024-05-09T13:18:07.710Z,13.44
2024-05-09T13:23:11.526Z,12.80
2024-05-09T13:28:15.333Z,12.43
2024-05-09T13:33:18.875Z,12.39
2024-05-09T13:38:22.927Z,12.91
2024-05-09T13:43:26.875Z,13.48
2024-05-09T13:48:30.618Z,14.02
2024-05-09T13:53:34.017Z,14.19
2024-05-09T13:58:37.376Z,14.74
2024-05-09T14:03:41.227Z,14.97
2024-05-09T14:08:44.931Z,14.86
2024-05-09T14:13:48.249Z,14.92
2024-05-09T14:18:51.929Z,15.03
2024-05-09T14:23:55.734Z,15.01
2024-05-09T14:28:59.136Z,15.23
2024-05-09T14:34:02.821Z,15.69
2024-05-09T14:39:06.191Z,15.81
2024-05-09T14:44:09.588Z,15.96
2024-05-09T14:49:13.023Z,15.99
2024-05-09T14:54:16.732Z,15.71
2024-05-09T14:59:19.992Z,15.80
2024-05-09T15:04:24.301Z,15.92
2024-05-09T15:09:27.902Z,15.70
2024-05-09T15:14:31.300Z,15.66
2024-05-09T15:19:34.890Z,15.56
2024-05-09T15:24:39.856Z,15.43
2024-05-09T15:29:44.583Z,15.47
2024-05-09T15:34:48.038Z,15.22
2024-05-09T15:39:52.012Z,15.22
2024-05-09T15:44:55.339Z,15.02
2024-05-09T15:49:58.792Z,14.90
2024-05-09T15:55:02.155Z,14.62
2024-05-09T16:00:09.848Z,14.41
2024-05-09T16:05:18.560Z,14.15
2024-05-09T16:10:26.006Z,14.11
2024-05-09T16:15:35.413Z,14.13
2024-05-09T16:20:41.652Z,13.89
2024-05-09T16:25:48.463Z,13.72
2024-05-09T16:30:52.198Z,13.53
2024-05-09T16:35:55.473Z,13.16
2024-05-09T16:40:58.756Z,12.76
2024-05-09T16:46:04.236Z,12.42
2024-05-09T16:51:07.548Z,12.30
2024-05-09T16:56:10.982Z,12.24
2024-05-09T17:01:17.776Z,12.14
2024-05-09T17:06:21.718Z,12.14
2024-05-09T17:11:25.281Z,11.90
2024-05-09T17:16:30.812Z,11.90
2024-05-09T17:21:34.402Z,11.72
2024-05-09T17:26:37.763Z,11.40
2024-05-09T17:31:41.031Z,11.10
2024-05-09T17:36:44.775Z,11.00
2024-05-09T17:41:48.139Z,10.97
2024-05-09T17:46:51.568Z,10.91
2024-05-09T17:51:55.427Z,11.02
2024-05-09T17:56:58.950Z,11.30
2024-05-09T18:02:02.512Z,11.49
2024-05-09T18:07:06.351Z,11.58
2024-05-09T18:12:09.709Z,11.68
2024-05-09T18:17:13.811Z,11.88
2024-05-09T18:22:17.518Z,12.12
2024-05-09T18:27:20.828Z,12.23
2024-05-09T18:32:24.305Z,12.28
2024-05-09T18:37:27.794Z,12.29
2024-05-09T18:42:31.113Z,12.24
2024-05-09T18:47:35.019Z,12.13
2024-05-09T18:52:38.526Z,12.02
2024-05-09T18:57:42.205Z,11.97
2024-05-09T19:02:46.235Z,11.82
2024-05-09T19:07:49.835Z,11.64
2024-05-09T19:12:53.455Z,11.87
2024-05-09T19:17:56.942Z,11.90
2024-05-09T19:23:00.451Z,11.81
2024-05-09T19:28:05.192Z,11.84
2024-05-09T19:33:11.265Z,11.83
2024-05-09T19:38:16.301Z,11.75
2024-05-09T19:43:20.146Z,11.67
2024-05-09T19:48:23.850Z,11.57
2024-05-09T19:53:27.194Z,11.27
2024-05-09T19:58:30.537Z,11.14
2024-05-09T20:03:37.684Z,11.17
2024-05-09T20:08:41.375Z,11.15
2024-05-09T20:13:44.723Z,10.88
2024-05-09T20:18:48.170Z,10.78
2024-05-09T20:23:52.059Z,10.70
2024-05-09T20:28:55.262Z,10.52
2024-05-09T20:33:58.499Z,10.41
2024-05-09T20:39:01.966Z,10.29
2024-05-09T20:44:05.296Z,10.04
2024-05-09T20:49:08.892Z,9.96
2024-05-09T20:54:12.582Z,9.92
2024-05-09T20:59:15.963Z,10.01
2024-05-09T21:04:19.345Z,10.13
2024-05-09T21:09:26.191Z,10.22
2024-05-09T21:14:30.505Z,10.34
2024-05-09T21:19:33.732Z,10.52
2024-05-09T21:24:36.967Z,10.66
2024-05-09T21:29:40.564Z,10.71
2024-05-09T21:34:44.228Z,10.83
2024-05-09T21:39:48.298Z,10.77
2024-05-09T21:44:51.668Z,10.72
2024-05-09T21:49:55.055Z,10.57
2024-05-09T21:54:58.436Z,10.37
2024-05-09T22:00:02.125Z,10.17
2024-05-09T22:05:08.470Z,9.97
2024-05-09T22:10:22.653Z,9.76
2024-05-09T22:15:30.210Z,9.46
2024-05-09T22:20:37.738Z,9.33
2024-05-09T22:25:43.088Z,9.22
2024-05-09T22:30:47.550Z,9.20
2024-05-09T22:35:51.841Z,9.23
2024-05-09T22:40:55.522Z,9.31
2024-05-09T22:45:59.201Z,9.28
2024-05-09T22:51:02.519Z,9.24
2024-05-09T22:56:05.998Z,9.23
2024-05-09T23:01:15.543Z,9.27
2024-05-09T23:06:18.915Z,9.42
2024-05-09T23:11:22.734Z,9.55
2024-05-09T23:16:26.310Z,9.50
2024-05-09T23:21:29.754Z,9.39
2024-05-09T23:26:33.175Z,9.48
2024-05-09T23:31:36.450Z,9.43
2024-05-09T23:36:39.844Z,9.34
2024-05-09T23:41:43.100Z,9.39
2024-05-09T23:46:46.426Z,9.39
2024-05-09T23:51:49.680Z,9.37
2024-05-09T23:56:52.931Z,9.48
